Conche, Canada
Current Conditions -  °F | °C
As of 7:00 AM on Friday 31 Oct 2014 (Local Time) from CYAY Reporting Station
Clear Clear  
Wind Chill: 26°   Ceiling: Unl
Heat Index: 36°   Visibility: 9mi
Dew Point: 32°   Wind: 15mph
Humidity: 87%   Direction: 260°W
Pressure: 29.7"   Gusts: 21mph
Location:  50.9°N, 55.9°W
Report Text: CYAY 310900Z AUTO 26013G18KT 9SM CLR 02/M00 A2970 RMK SLP059
Loading
Personal Weather Stations






























Interactive Weather Map
Tropical Storm Tracking
New forecast layout! Learn more

10-Day Weather Forecast

Advertisements
Track Severe Weather on mobile